sensor_id;sensor_type;location;lat;lon;timestamp;temperature;humidity
4763;DHT22;2395;50.738;7.122;2022-10-23T00:02:42;13.40;99.90
4763;DHT22;2395;50.738;7.122;2022-10-23T00:06:07;13.40;99.90
4763;DHT22;2395;50.738;7.122;2022-10-23T00:09:33;13.20;99.90
4763;DHT22;2395;50.738;7.122;2022-10-23T00:12:58;13.20;99.90
4763;DHT22;2395;50.738;7.122;2022-10-23T00:16:25;13.20;99.90
4763;DHT22;2395;50.738;7.122;2022-10-23T00:19:52;13.10;99.90
4763;DHT22;2395;50.738;7.122;2022-10-23T00:23:17;13.10;99.90
4763;DHT22;2395;50.738;7.122;2022-10-23T00:26:43;13.00;99.90
4763;DHT22;2395;50.738;7.122;2022-10-23T00:30:10;13.10;99.90
4763;DHT22;2395;50.738;7.122;2022-10-23T00:33:35;13.10;99.90
4763;DHT22;2395;50.738;7.122;2022-10-23T00:37:02;13.10;99.90
4763;DHT22;2395;50.738;7.122;2022-10-23T00:40:28;13.10;99.90
4763;DHT22;2395;50.738;7.122;2022-10-23T00:44:07;13.00;99.90
4763;DHT22;2395;50.738;7.122;2022-10-23T00:47:35;13.10;99.90
4763;DHT22;2395;50.738;7.122;2022-10-23T00:51:00;13.00;99.90
4763;DHT22;2395;50.738;7.122;2022-10-23T00:54:33;13.10;99.90
4763;DHT22;2395;50.738;7.122;2022-10-23T00:58:02;13.00;99.90
4763;DHT22;2395;50.738;7.122;2022-10-23T01:01:28;12.90;99.90
4763;DHT22;2395;50.738;7.122;2022-10-23T01:04:53;13.00;99.90
4763;DHT22;2395;50.738;7.122;2022-10-23T01:08:27;13.00;99.90
4763;DHT22;2395;50.738;7.122;2022-10-23T01:12:01;13.10;99.90
4763;DHT22;2395;50.738;7.122;2022-10-23T01:15:38;13.00;99.90
4763;DHT22;2395;50.738;7.122;2022-10-23T01:19:19;12.90;99.90
4763;DHT22;2395;50.738;7.122;2022-10-23T01:23:09;13.10;99.90
4763;DHT22;2395;50.738;7.122;2022-10-23T01:26:54;12.90;99.90
4763;DHT22;2395;50.738;7.122;2022-10-23T01:30:26;13.00;99.90
4763;DHT22;2395;50.738;7.122;2022-10-23T01:33:58;12.90;99.90
4763;DHT22;2395;50.738;7.122;2022-10-23T01:37:32;12.80;99.90
4763;DHT22;2395;50.738;7.122;2022-10-23T01:41:08;12.80;99.90
4763;DHT22;2395;50.738;7.122;2022-10-23T01:44:41;12.90;99.90
4763;DHT22;2395;50.738;7.122;2022-10-23T01:48:12;12.90;99.90
4763;DHT22;2395;50.738;7.122;2022-10-23T01:51:43;12.90;99.90
4763;DHT22;2395;50.738;7.122;2022-10-23T01:55:10;12.90;99.90
4763;DHT22;2395;50.738;7.122;2022-10-23T01:58:32;12.90;99.90
4763;DHT22;2395;50.738;7.122;2022-10-23T02:02:03;12.80;99.90
4763;DHT22;2395;50.738;7.122;2022-10-23T02:05:32;12.80;99.90
4763;DHT22;2395;50.738;7.122;2022-10-23T02:08:58;12.70;99.90
4763;DHT22;2395;50.738;7.122;2022-10-23T02:12:30;12.60;99.90
4763;DHT22;2395;50.738;7.122;2022-10-23T02:16:04;12.60;99.90
4763;DHT22;2395;50.738;7.122;2022-10-23T02:19:41;12.60;99.90
4763;DHT22;2395;50.738;7.122;2022-10-23T02:23:16;12.70;99.90
4763;DHT22;2395;50.738;7.122;2022-10-23T02:26:51;12.60;99.90
4763;DHT22;2395;50.738;7.122;2022-10-23T02:30:21;12.50;99.90
4763;DHT22;2395;50.738;7.122;2022-10-23T02:33:49;12.60;99.90
4763;DHT22;2395;50.738;7.122;2022-10-23T02:37:15;12.60;99.90
4763;DHT22;2395;50.738;7.122;2022-10-23T02:41:12;12.60;99.90
4763;DHT22;2395;50.738;7.122;2022-10-23T02:44:54;12.60;99.90
4763;DHT22;2395;50.738;7.122;2022-10-23T02:48:26;12.60;99.90
4763;DHT22;2395;50.738;7.122;2022-10-23T02:52:05;12.70;99.90
4763;DHT22;2395;50.738;7.122;2022-10-23T02:55:43;12.70;99.90
4763;DHT22;2395;50.738;7.122;2022-10-23T02:59:20;12.70;99.90
4763;DHT22;2395;50.738;7.122;2022-10-23T03:02:53;12.60;99.90
4763;DHT22;2395;50.738;7.122;2022-10-23T03:06:24;12.80;99.90
4763;DHT22;2395;50.738;7.122;2022-10-23T03:09:51;12.80;99.90
4763;DHT22;2395;50.738;7.122;2022-10-23T03:13:16;12.90;99.90
4763;DHT22;2395;50.738;7.122;2022-10-23T03:16:42;13.00;99.90
4763;DHT22;2395;50.738;7.122;2022-10-23T03:20:08;13.00;99.90
4763;DHT22;2395;50.738;7.122;2022-10-23T03:23:35;13.10;99.90
4763;DHT22;2395;50.738;7.122;2022-10-23T03:27:01;13.10;99.90
4763;DHT22;2395;50.738;7.122;2022-10-23T03:30:26;13.00;99.90
4763;DHT22;2395;50.738;7.122;2022-10-23T03:33:51;13.00;99.90
4763;DHT22;2395;50.738;7.122;2022-10-23T03:37:17;12.90;99.90
4763;DHT22;2395;50.738;7.122;2022-10-23T03:40:44;13.00;99.90
4763;DHT22;2395;50.738;7.122;2022-10-23T03:44:09;12.90;99.90
4763;DHT22;2395;50.738;7.122;2022-10-23T03:47:35;12.90;99.90
4763;DHT22;2395;50.738;7.122;2022-10-23T03:51:02;12.90;99.90
4763;DHT22;2395;50.738;7.122;2022-10-23T03:54:28;12.90;99.90
4763;DHT22;2395;50.738;7.122;2022-10-23T03:57:55;12.80;99.90
4763;DHT22;2395;50.738;7.122;2022-10-23T04:01:21;13.00;99.90
4763;DHT22;2395;50.738;7.122;2022-10-23T04:04:46;12.90;99.90
4763;DHT22;2395;50.738;7.122;2022-10-23T04:08:11;12.90;99.90
4763;DHT22;2395;50.738;7.122;2022-10-23T04:11:37;12.90;99.90
4763;DHT22;2395;50.738;7.122;2022-10-23T04:15:04;12.90;99.90
4763;DHT22;2395;50.738;7.122;2022-10-23T04:18:30;13.10;99.90
4763;DHT22;2395;50.738;7.122;2022-10-23T04:21:55;13.00;99.90
4763;DHT22;2395;50.738;7.122;2022-10-23T04:25:21;13.00;99.90
4763;DHT22;2395;50.738;7.122;2022-10-23T04:28:46;12.90;99.90
4763;DHT22;2395;50.738;7.122;2022-10-23T04:32:13;12.90;99.90
4763;DHT22;2395;50.738;7.122;2022-10-23T04:35:38;13.00;99.90
4763;DHT22;2395;50.738;7.122;2022-10-23T04:39:04;12.90;99.90
4763;DHT22;2395;50.738;7.122;2022-10-23T04:42:29;13.00;99.90
4763;DHT22;2395;50.738;7.122;2022-10-23T04:45:55;12.80;99.90
4763;DHT22;2395;50.738;7.122;2022-10-23T04:49:22;12.90;99.90
4763;DHT22;2395;50.738;7.122;2022-10-23T04:52:47;13.00;99.90
4763;DHT22;2395;50.738;7.122;2022-10-23T04:56:14;12.90;99.90
4763;DHT22;2395;50.738;7.122;2022-10-23T04:59:39;13.00;99.90
4763;DHT22;2395;50.738;7.122;2022-10-23T05:03:04;13.00;99.90
4763;DHT22;2395;50.738;7.122;2022-10-23T05:06:31;12.80;99.90
4763;DHT22;2395;50.738;7.122;2022-10-23T05:09:57;12.90;99.90
4763;DHT22;2395;50.738;7.122;2022-10-23T05:13:22;12.90;99.90
4763;DHT22;2395;50.738;7.122;2022-10-23T05:16:51;12.90;99.90
4763;DHT22;2395;50.738;7.122;2022-10-23T05:20:22;13.00;99.90
4763;DHT22;2395;50.738;7.122;2022-10-23T05:23:53;12.90;99.90
4763;DHT22;2395;50.738;7.122;2022-10-23T05:27:19;12.90;99.90
4763;DHT22;2395;50.738;7.122;2022-10-23T05:30:44;12.90;99.90
4763;DHT22;2395;50.738;7.122;2022-10-23T05:34:11;13.00;99.90
4763;DHT22;2395;50.738;7.122;2022-10-23T05:37:42;13.00;99.90
4763;DHT22;2395;50.738;7.122;2022-10-23T05:41:11;12.90;99.90
4763;DHT22;2395;50.738;7.122;2022-10-23T05:44:37;12.80;99.90
4763;DHT22;2395;50.738;7.122;2022-10-23T05:48:02;12.90;99.90
4763;DHT22;2395;50.738;7.122;2022-10-23T05:51:27;12.70;99.90
4763;DHT22;2395;50.738;7.122;2022-10-23T05:54:53;12.60;99.90
4763;DHT22;2395;50.738;7.122;2022-10-23T05:58:19;12.60;99.90
4763;DHT22;2395;50.738;7.122;2022-10-23T06:01:45;12.70;99.90
4763;DHT22;2395;50.738;7.122;2022-10-23T06:05:10;12.60;99.90
4763;DHT22;2395;50.738;7.122;2022-10-23T06:08:35;12.60;99.90
4763;DHT22;2395;50.738;7.122;2022-10-23T06:12:00;12.70;99.90
4763;DHT22;2395;50.738;7.122;2022-10-23T06:15:27;12.70;99.90
4763;DHT22;2395;50.738;7.122;2022-10-23T06:18:52;12.70;99.90
4763;DHT22;2395;50.738;7.122;2022-10-23T06:22:18;12.70;99.90
4763;DHT22;2395;50.738;7.122;2022-10-23T06:25:49;12.60;99.90
4763;DHT22;2395;50.738;7.122;2022-10-23T06:29:15;12.60;99.90
4763;DHT22;2395;50.738;7.122;2022-10-23T06:32:42;12.60;99.90
4763;DHT22;2395;50.738;7.122;2022-10-23T06:36:08;13.00;99.90
4763;DHT22;2395;50.738;7.122;2022-10-23T06:39:33;13.20;99.90
4763;DHT22;2395;50.738;7.122;2022-10-23T06:42:59;13.20;99.90
4763;DHT22;2395;50.738;7.122;2022-10-23T06:46:24;13.10;99.90
4763;DHT22;2395;50.738;7.122;2022-10-23T06:49:51;13.40;99.90
4763;DHT22;2395;50.738;7.122;2022-10-23T06:53:16;13.50;99.90
4763;DHT22;2395;50.738;7.122;2022-10-23T06:56:42;13.80;99.90
4763;DHT22;2395;50.738;7.122;2022-10-23T07:00:08;13.40;99.90
4763;DHT22;2395;50.738;7.122;2022-10-23T07:03:36;13.30;99.90
4763;DHT22;2395;50.738;7.122;2022-10-23T07:07:03;13.40;99.90
4763;DHT22;2395;50.738;7.122;2022-10-23T07:10:30;13.40;99.90
4763;DHT22;2395;50.738;7.122;2022-10-23T07:13:55;13.40;99.90
4763;DHT22;2395;50.738;7.122;2022-10-23T07:17:20;13.50;99.90
4763;DHT22;2395;50.738;7.122;2022-10-23T07:20:46;13.50;99.90
4763;DHT22;2395;50.738;7.122;2022-10-23T07:24:14;13.40;99.90
4763;DHT22;2395;50.738;7.122;2022-10-23T07:27:39;13.30;99.90
4763;DHT22;2395;50.738;7.122;2022-10-23T07:31:06;13.30;99.90
4763;DHT22;2395;50.738;7.122;2022-10-23T07:34:32;13.30;99.90
4763;DHT22;2395;50.738;7.122;2022-10-23T07:37:58;13.40;99.90
4763;DHT22;2395;50.738;7.122;2022-10-23T07:41:25;13.50;99.90
4763;DHT22;2395;50.738;7.122;2022-10-23T07:44:50;13.50;99.90
4763;DHT22;2395;50.738;7.122;2022-10-23T07:48:16;13.70;99.90
4763;DHT22;2395;50.738;7.122;2022-10-23T07:51:41;13.70;99.90
4763;DHT22;2395;50.738;7.122;2022-10-23T07:55:07;13.60;99.90
4763;DHT22;2395;50.738;7.122;2022-10-23T07:58:38;13.70;99.90
4763;DHT22;2395;50.738;7.122;2022-10-23T08:02:07;13.70;99.90
4763;DHT22;2395;50.738;7.122;2022-10-23T08:05:35;13.80;99.90
4763;DHT22;2395;50.738;7.122;2022-10-23T08:09:00;13.90;99.90
4763;DHT22;2395;50.738;7.122;2022-10-23T08:12:26;14.10;99.90
4763;DHT22;2395;50.738;7.122;2022-10-23T08:15:53;14.20;99.90
4763;DHT22;2395;50.738;7.122;2022-10-23T08:19:18;14.40;99.90
4763;DHT22;2395;50.738;7.122;2022-10-23T08:22:44;14.60;99.90
4763;DHT22;2395;50.738;7.122;2022-10-23T08:26:10;14.80;99.90
4763;DHT22;2395;50.738;7.122;2022-10-23T08:29:36;15.00;99.90
4763;DHT22;2395;50.738;7.122;2022-10-23T08:33:03;15.20;99.90
4763;DHT22;2395;50.738;7.122;2022-10-23T08:36:29;15.50;99.90
4763;DHT22;2395;50.738;7.122;2022-10-23T08:39:54;15.70;99.90
4763;DHT22;2395;50.738;7.122;2022-10-23T08:43:27;16.00;99.90
4763;DHT22;2395;50.738;7.122;2022-10-23T08:47:02;16.20;99.90
4763;DHT22;2395;50.738;7.122;2022-10-23T08:50:37;16.20;99.90
4763;DHT22;2395;50.738;7.122;2022-10-23T08:54:13;16.40;99.90
4763;DHT22;2395;50.738;7.122;2022-10-23T08:57:46;16.60;99.90
4763;DHT22;2395;50.738;7.122;2022-10-23T09:01:32;16.90;99.90
4763;DHT22;2395;50.738;7.122;2022-10-23T09:05:03;17.10;99.90
4763;DHT22;2395;50.738;7.122;2022-10-23T09:08:40;17.20;99.90
4763;DHT22;2395;50.738;7.122;2022-10-23T09:12:20;17.60;99.90
4763;DHT22;2395;50.738;7.122;2022-10-23T09:16:00;17.80;99.90
4763;DHT22;2395;50.738;7.122;2022-10-23T09:19:36;18.00;99.90
4763;DHT22;2395;50.738;7.122;2022-10-23T09:23:16;18.20;99.90
4763;DHT22;2395;50.738;7.122;2022-10-23T09:26:43;18.20;99.90
4763;DHT22;2395;50.738;7.122;2022-10-23T09:30:12;18.20;99.90
4763;DHT22;2395;50.738;7.122;2022-10-23T09:33:55;18.00;99.90
4763;DHT22;2395;50.738;7.122;2022-10-23T09:37:24;17.90;99.90
4763;DHT22;2395;50.738;7.122;2022-10-23T09:40:53;17.70;99.90
4763;DHT22;2395;50.738;7.122;2022-10-23T09:44:20;17.70;99.90
4763;DHT22;2395;50.738;7.122;2022-10-23T09:47:47;17.70;99.90
4763;DHT22;2395;50.738;7.122;2022-10-23T09:51:22;17.90;99.90
4763;DHT22;2395;50.738;7.122;2022-10-23T09:54:53;17.90;99.90
4763;DHT22;2395;50.738;7.122;2022-10-23T09:58:28;17.80;99.90
4763;DHT22;2395;50.738;7.122;2022-10-23T10:01:57;17.80;99.90
4763;DHT22;2395;50.738;7.122;2022-10-23T10:05:25;18.00;99.90
4763;DHT22;2395;50.738;7.122;2022-10-23T10:08:56;18.00;99.90
4763;DHT22;2395;50.738;7.122;2022-10-23T10:12:36;18.00;99.90
4763;DHT22;2395;50.738;7.122;2022-10-23T10:16:15;18.00;99.90
4763;DHT22;2395;50.738;7.122;2022-10-23T10:20:06;18.00;99.90
4763;DHT22;2395;50.738;7.122;2022-10-23T10:23:45;17.80;99.90
4763;DHT22;2395;50.738;7.122;2022-10-23T10:27:29;17.50;99.90
4763;DHT22;2395;50.738;7.122;2022-10-23T10:31:11;17.30;99.90
4763;DHT22;2395;50.738;7.122;2022-10-23T10:34:52;17.40;99.90
4763;DHT22;2395;50.738;7.122;2022-10-23T10:38:43;17.30;99.90
4763;DHT22;2395;50.738;7.122;2022-10-23T10:42:26;17.30;99.90
4763;DHT22;2395;50.738;7.122;2022-10-23T10:46:05;17.30;99.90
4763;DHT22;2395;50.738;7.122;2022-10-23T10:49:40;17.40;99.90
4763;DHT22;2395;50.738;7.122;2022-10-23T10:53:17;17.30;99.90
4763;DHT22;2395;50.738;7.122;2022-10-23T10:56:57;17.10;99.90
4763;DHT22;2395;50.738;7.122;2022-10-23T11:00:30;17.00;99.90
4763;DHT22;2395;50.738;7.122;2022-10-23T11:04:04;16.90;99.90
4763;DHT22;2395;50.738;7.122;2022-10-23T11:07:41;16.70;99.90
4763;DHT22;2395;50.738;7.122;2022-10-23T11:11:12;16.70;99.90
4763;DHT22;2395;50.738;7.122;2022-10-23T11:14:44;16.70;99.90
4763;DHT22;2395;50.738;7.122;2022-10-23T11:18:14;16.70;99.90
4763;DHT22;2395;50.738;7.122;2022-10-23T11:21:50;16.70;99.90
4763;DHT22;2395;50.738;7.122;2022-10-23T11:25:20;16.80;99.90
4763;DHT22;2395;50.738;7.122;2022-10-23T11:28:39;17.00;99.90
4763;DHT22;2395;50.738;7.122;2022-10-23T11:32:31;17.20;99.90
4763;DHT22;2395;50.738;7.122;2022-10-23T11:36:15;17.50;99.90
4763;DHT22;2395;50.738;7.122;2022-10-23T11:39:52;17.80;99.90
4763;DHT22;2395;50.738;7.122;2022-10-23T11:43:27;18.20;99.90
4763;DHT22;2395;50.738;7.122;2022-10-23T11:47:04;18.50;99.90
4763;DHT22;2395;50.738;7.122;2022-10-23T11:50:33;18.60;99.90
4763;DHT22;2395;50.738;7.122;2022-10-23T11:54:18;18.80;99.90
4763;DHT22;2395;50.738;7.122;2022-10-23T12:02:00;18.90;99.90
4763;DHT22;2395;50.738;7.122;2022-10-23T12:05:32;19.10;99.90
4763;DHT22;2395;50.738;7.122;2022-10-23T12:09:05;19.00;99.90
4763;DHT22;2395;50.738;7.122;2022-10-23T12:12:33;19.10;99.90
4763;DHT22;2395;50.738;7.122;2022-10-23T12:16:10;19.30;99.90
4763;DHT22;2395;50.738;7.122;2022-10-23T12:20:16;19.50;99.90
4763;DHT22;2395;50.738;7.122;2022-10-23T12:24:26;19.50;99.90
4763;DHT22;2395;50.738;7.122;2022-10-23T12:28:03;19.30;99.90
4763;DHT22;2395;50.738;7.122;2022-10-23T12:31:44;19.30;99.90
4763;DHT22;2395;50.738;7.122;2022-10-23T12:35:51;19.20;99.90
4763;DHT22;2395;50.738;7.122;2022-10-23T12:39:34;19.30;99.90
4763;DHT22;2395;50.738;7.122;2022-10-23T12:43:00;19.50;99.90
4763;DHT22;2395;50.738;7.122;2022-10-23T12:46:30;19.50;99.90
4763;DHT22;2395;50.738;7.122;2022-10-23T12:49:56;19.50;99.90
4763;DHT22;2395;50.738;7.122;2022-10-23T12:53:23;19.80;99.90
4763;DHT22;2395;50.738;7.122;2022-10-23T12:56:49;19.80;99.90
4763;DHT22;2395;50.738;7.122;2022-10-23T13:00:17;19.80;99.90
4763;DHT22;2395;50.738;7.122;2022-10-23T13:03:51;19.80;99.90
4763;DHT22;2395;50.738;7.122;2022-10-23T13:07:26;19.60;99.90
4763;DHT22;2395;50.738;7.122;2022-10-23T13:10:54;19.70;99.90
4763;DHT22;2395;50.738;7.122;2022-10-23T13:14:30;19.40;99.90
4763;DHT22;2395;50.738;7.122;2022-10-23T13:18:03;19.30;99.90
4763;DHT22;2395;50.738;7.122;2022-10-23T13:21:28;19.30;99.90
4763;DHT22;2395;50.738;7.122;2022-10-23T13:24:55;19.40;99.90
4763;DHT22;2395;50.738;7.122;2022-10-23T13:28:23;19.40;99.90
4763;DHT22;2395;50.738;7.122;2022-10-23T13:31:51;19.70;99.90
4763;DHT22;2395;50.738;7.122;2022-10-23T13:35:21;19.90;99.90
4763;DHT22;2395;50.738;7.122;2022-10-23T13:39:01;20.00;99.90
4763;DHT22;2395;50.738;7.122;2022-10-23T13:42:28;19.90;99.90
4763;DHT22;2395;50.738;7.122;2022-10-23T13:45:55;19.90;99.90
4763;DHT22;2395;50.738;7.122;2022-10-23T13:49:21;19.80;99.90
4763;DHT22;2395;50.738;7.122;2022-10-23T13:52:47;19.80;99.90
4763;DHT22;2395;50.738;7.122;2022-10-23T13:56:17;19.70;99.90
4763;DHT22;2395;50.738;7.122;2022-10-23T13:59:44;19.70;99.90
4763;DHT22;2395;50.738;7.122;2022-10-23T14:03:11;19.60;99.90
4763;DHT22;2395;50.738;7.122;2022-10-23T14:06:39;19.60;99.90
4763;DHT22;2395;50.738;7.122;2022-10-23T14:10:06;19.50;99.90
4763;DHT22;2395;50.738;7.122;2022-10-23T14:13:33;19.50;99.90
4763;DHT22;2395;50.738;7.122;2022-10-23T14:16:58;19.60;99.90
4763;DHT22;2395;50.738;7.122;2022-10-23T14:20:24;19.50;99.90
4763;DHT22;2395;50.738;7.122;2022-10-23T14:23:52;19.60;99.90
4763;DHT22;2395;50.738;7.122;2022-10-23T14:27:18;19.50;99.90
4763;DHT22;2395;50.738;7.122;2022-10-23T14:30:44;19.30;99.90
4763;DHT22;2395;50.738;7.122;2022-10-23T14:34:10;19.30;99.90
4763;DHT22;2395;50.738;7.122;2022-10-23T14:37:35;19.10;99.90
4763;DHT22;2395;50.738;7.122;2022-10-23T14:41:01;19.00;99.90
4763;DHT22;2395;50.738;7.122;2022-10-23T14:44:32;18.90;99.90
4763;DHT22;2395;50.738;7.122;2022-10-23T14:48:03;18.80;99.90
4763;DHT22;2395;50.738;7.122;2022-10-23T14:51:29;18.70;99.90
4763;DHT22;2395;50.738;7.122;2022-10-23T14:54:55;18.70;99.90
4763;DHT22;2395;50.738;7.122;2022-10-23T14:58:25;18.70;99.90
4763;DHT22;2395;50.738;7.122;2022-10-23T15:01:51;18.60;99.90
4763;DHT22;2395;50.738;7.122;2022-10-23T15:05:18;18.60;99.90
4763;DHT22;2395;50.738;7.122;2022-10-23T15:08:43;18.50;99.90
4763;DHT22;2395;50.738;7.122;2022-10-23T15:12:09;18.40;99.90
4763;DHT22;2395;50.738;7.122;2022-10-23T15:15:34;18.40;99.90
4763;DHT22;2395;50.738;7.122;2022-10-23T15:19:05;18.40;99.90
4763;DHT22;2395;50.738;7.122;2022-10-23T15:22:33;18.40;99.90
4763;DHT22;2395;50.738;7.122;2022-10-23T15:26:01;18.30;99.90
4763;DHT22;2395;50.738;7.122;2022-10-23T15:29:26;18.30;99.90
4763;DHT22;2395;50.738;7.122;2022-10-23T15:32:52;18.30;99.90
4763;DHT22;2395;50.738;7.122;2022-10-23T15:36:17;18.30;99.90
4763;DHT22;2395;50.738;7.122;2022-10-23T15:39:44;18.40;99.90
4763;DHT22;2395;50.738;7.122;2022-10-23T15:43:10;18.40;99.90
4763;DHT22;2395;50.738;7.122;2022-10-23T15:46:37;18.30;99.90
4763;DHT22;2395;50.738;7.122;2022-10-23T15:50:03;18.30;99.90
4763;DHT22;2395;50.738;7.122;2022-10-23T15:53:29;18.30;99.90
4763;DHT22;2395;50.738;7.122;2022-10-23T15:56:56;18.30;99.90
4763;DHT22;2395;50.738;7.122;2022-10-23T16:00:26;18.20;99.90
4763;DHT22;2395;50.738;7.122;2022-10-23T16:03:51;18.20;99.90
4763;DHT22;2395;50.738;7.122;2022-10-23T16:07:17;18.20;99.90
4763;DHT22;2395;50.738;7.122;2022-10-23T16:10:42;18.20;99.90
4763;DHT22;2395;50.738;7.122;2022-10-23T16:14:13;18.20;99.90
4763;DHT22;2395;50.738;7.122;2022-10-23T16:17:38;18.20;99.90
4763;DHT22;2395;50.738;7.122;2022-10-23T16:21:05;18.20;99.90
4763;DHT22;2395;50.738;7.122;2022-10-23T16:24:31;18.20;99.90
4763;DHT22;2395;50.738;7.122;2022-10-23T16:27:57;18.20;99.90
4763;DHT22;2395;50.738;7.122;2022-10-23T16:31:26;18.20;99.90
4763;DHT22;2395;50.738;7.122;2022-10-23T16:34:51;18.10;99.90
4763;DHT22;2395;50.738;7.122;2022-10-23T16:38:17;18.10;99.90
4763;DHT22;2395;50.738;7.122;2022-10-23T16:41:43;18.00;99.90
4763;DHT22;2395;50.738;7.122;2022-10-23T16:45:09;17.80;99.90
4763;DHT22;2395;50.738;7.122;2022-10-23T16:48:39;17.80;99.90
4763;DHT22;2395;50.738;7.122;2022-10-23T16:51:27;17.60;99.90
4763;DHT22;2395;50.738;7.122;2022-10-23T16:54:53;17.40;99.90
4763;DHT22;2395;50.738;7.122;2022-10-23T16:58:19;17.30;99.90
4763;DHT22;2395;50.738;7.122;2022-10-23T17:01:44;16.90;99.90
4763;DHT22;2395;50.738;7.122;2022-10-23T17:05:11;16.70;99.90
4763;DHT22;2395;50.738;7.122;2022-10-23T17:08:38;16.60;99.90
4763;DHT22;2395;50.738;7.122;2022-10-23T17:12:03;16.50;99.90
4763;DHT22;2395;50.738;7.122;2022-10-23T17:15:29;16.50;99.90
4763;DHT22;2395;50.738;7.122;2022-10-23T17:18:56;16.50;99.90
4763;DHT22;2395;50.738;7.122;2022-10-23T17:22:23;16.30;99.90
4763;DHT22;2395;50.738;7.122;2022-10-23T17:25:48;16.40;99.90
4763;DHT22;2395;50.738;7.122;2022-10-23T17:29:14;16.20;99.90
4763;DHT22;2395;50.738;7.122;2022-10-23T17:32:40;16.10;99.90
4763;DHT22;2395;50.738;7.122;2022-10-23T17:36:06;16.10;99.90
4763;DHT22;2395;50.738;7.122;2022-10-23T17:39:33;15.90;99.90
4763;DHT22;2395;50.738;7.122;2022-10-23T17:42:59;15.70;99.90
4763;DHT22;2395;50.738;7.122;2022-10-23T17:46:26;15.60;99.90
4763;DHT22;2395;50.738;7.122;2022-10-23T17:49:51;15.50;99.90
4763;DHT22;2395;50.738;7.122;2022-10-23T17:53:25;15.50;99.90
4763;DHT22;2395;50.738;7.122;2022-10-23T17:56:53;15.50;99.90
4763;DHT22;2395;50.738;7.122;2022-10-23T18:00:19;15.50;99.90
4763;DHT22;2395;50.738;7.122;2022-10-23T18:03:45;15.30;99.90
4763;DHT22;2395;50.738;7.122;2022-10-23T18:07:11;15.20;99.90
4763;DHT22;2395;50.738;7.122;2022-10-23T18:10:36;15.20;99.90
4763;DHT22;2395;50.738;7.122;2022-10-23T18:14:05;15.20;99.90
4763;DHT22;2395;50.738;7.122;2022-10-23T18:17:31;15.10;99.90
4763;DHT22;2395;50.738;7.122;2022-10-23T18:20:56;15.10;99.90
4763;DHT22;2395;50.738;7.122;2022-10-23T18:24:22;15.10;99.90
4763;DHT22;2395;50.738;7.122;2022-10-23T18:27:47;15.10;99.90
4763;DHT22;2395;50.738;7.122;2022-10-23T18:31:16;15.00;99.90
4763;DHT22;2395;50.738;7.122;2022-10-23T18:34:41;15.00;99.90
4763;DHT22;2395;50.738;7.122;2022-10-23T18:38:07;15.00;99.90
4763;DHT22;2395;50.738;7.122;2022-10-23T18:41:36;14.90;99.90
4763;DHT22;2395;50.738;7.122;2022-10-23T18:45:01;14.90;99.90
4763;DHT22;2395;50.738;7.122;2022-10-23T18:48:28;14.90;99.90
4763;DHT22;2395;50.738;7.122;2022-10-23T18:51:54;14.90;99.90
4763;DHT22;2395;50.738;7.122;2022-10-23T18:55:20;14.90;99.90
4763;DHT22;2395;50.738;7.122;2022-10-23T18:58:48;14.80;99.90
4763;DHT22;2395;50.738;7.122;2022-10-23T19:02:15;14.90;99.90
4763;DHT22;2395;50.738;7.122;2022-10-23T19:05:43;14.90;99.90
4763;DHT22;2395;50.738;7.122;2022-10-23T19:09:11;14.90;99.90
4763;DHT22;2395;50.738;7.122;2022-10-23T19:12:40;14.90;99.90
4763;DHT22;2395;50.738;7.122;2022-10-23T19:16:07;14.90;99.90
4763;DHT22;2395;50.738;7.122;2022-10-23T19:19:41;15.00;99.90
4763;DHT22;2395;50.738;7.122;2022-10-23T19:23:09;15.00;99.90
4763;DHT22;2395;50.738;7.122;2022-10-23T19:26:39;15.00;99.90
4763;DHT22;2395;50.738;7.122;2022-10-23T19:30:10;15.10;99.90
4763;DHT22;2395;50.738;7.122;2022-10-23T19:33:37;15.00;99.90
4763;DHT22;2395;50.738;7.122;2022-10-23T19:37:04;15.00;99.90
4763;DHT22;2395;50.738;7.122;2022-10-23T19:40:29;15.10;99.90
4763;DHT22;2395;50.738;7.122;2022-10-23T19:43:56;15.10;99.90
4763;DHT22;2395;50.738;7.122;2022-10-23T19:47:22;15.10;99.90
4763;DHT22;2395;50.738;7.122;2022-10-23T19:50:47;15.20;99.90
4763;DHT22;2395;50.738;7.122;2022-10-23T19:54:15;15.20;99.90
4763;DHT22;2395;50.738;7.122;2022-10-23T19:57:40;15.20;99.90
4763;DHT22;2395;50.738;7.122;2022-10-23T20:01:07;15.20;99.90
4763;DHT22;2395;50.738;7.122;2022-10-23T20:04:33;15.30;99.90
4763;DHT22;2395;50.738;7.122;2022-10-23T20:07:59;15.30;99.90
4763;DHT22;2395;50.738;7.122;2022-10-23T20:11:27;15.30;99.90
4763;DHT22;2395;50.738;7.122;2022-10-23T20:14:53;15.30;99.90
4763;DHT22;2395;50.738;7.122;2022-10-23T20:18:18;15.20;99.90
4763;DHT22;2395;50.738;7.122;2022-10-23T20:21:46;15.20;99.90
4763;DHT22;2395;50.738;7.122;2022-10-23T20:25:12;15.20;99.90
4763;DHT22;2395;50.738;7.122;2022-10-23T20:28:42;15.20;99.90
4763;DHT22;2395;50.738;7.122;2022-10-23T20:32:08;15.20;99.90
4763;DHT22;2395;50.738;7.122;2022-10-23T20:35:37;15.20;99.90
4763;DHT22;2395;50.738;7.122;2022-10-23T20:39:08;15.30;99.90
4763;DHT22;2395;50.738;7.122;2022-10-23T20:42:34;15.20;99.90
4763;DHT22;2395;50.738;7.122;2022-10-23T20:46:03;15.40;99.90
4763;DHT22;2395;50.738;7.122;2022-10-23T20:49:29;15.40;99.90
4763;DHT22;2395;50.738;7.122;2022-10-23T20:52:54;15.40;99.90
4763;DHT22;2395;50.738;7.122;2022-10-23T20:56:23;15.40;99.90
4763;DHT22;2395;50.738;7.122;2022-10-23T20:59:49;15.50;99.90
4763;DHT22;2395;50.738;7.122;2022-10-23T21:03:15;15.50;99.90
4763;DHT22;2395;50.738;7.122;2022-10-23T21:06:42;15.60;99.90
4763;DHT22;2395;50.738;7.122;2022-10-23T21:10:08;15.70;99.90
4763;DHT22;2395;50.738;7.122;2022-10-23T21:13:36;15.70;99.90
4763;DHT22;2395;50.738;7.122;2022-10-23T21:17:02;15.60;99.90
4763;DHT22;2395;50.738;7.122;2022-10-23T21:20:29;15.50;99.90
4763;DHT22;2395;50.738;7.122;2022-10-23T21:23:56;15.50;99.90
4763;DHT22;2395;50.738;7.122;2022-10-23T21:27:23;15.40;99.90
4763;DHT22;2395;50.738;7.122;2022-10-23T21:30:48;15.40;99.90
4763;DHT22;2395;50.738;7.122;2022-10-23T21:34:17;15.30;99.90
4763;DHT22;2395;50.738;7.122;2022-10-23T21:37:43;15.40;99.90
4763;DHT22;2395;50.738;7.122;2022-10-23T21:41:13;15.30;99.90
4763;DHT22;2395;50.738;7.122;2022-10-23T21:44:39;15.30;99.90
4763;DHT22;2395;50.738;7.122;2022-10-23T21:48:05;15.30;99.90
4763;DHT22;2395;50.738;7.122;2022-10-23T21:51:32;15.20;99.90
4763;DHT22;2395;50.738;7.122;2022-10-23T21:54:59;15.20;99.90
4763;DHT22;2395;50.738;7.122;2022-10-23T21:58:27;15.20;99.90
4763;DHT22;2395;50.738;7.122;2022-10-23T22:01:52;15.10;99.90
4763;DHT22;2395;50.738;7.122;2022-10-23T22:05:18;15.00;99.90
4763;DHT22;2395;50.738;7.122;2022-10-23T22:08:44;15.00;99.90
4763;DHT22;2395;50.738;7.122;2022-10-23T22:12:11;14.90;99.90
4763;DHT22;2395;50.738;7.122;2022-10-23T22:15:36;14.90;99.90
4763;DHT22;2395;50.738;7.122;2022-10-23T22:19:02;14.90;99.90
4763;DHT22;2395;50.738;7.122;2022-10-23T22:22:28;15.00;99.90
4763;DHT22;2395;50.738;7.122;2022-10-23T22:25:53;15.00;99.90
4763;DHT22;2395;50.738;7.122;2022-10-23T22:29:24;15.00;99.90
4763;DHT22;2395;50.738;7.122;2022-10-23T22:32:50;14.90;99.90
4763;DHT22;2395;50.738;7.122;2022-10-23T22:36:16;14.90;99.90
4763;DHT22;2395;50.738;7.122;2022-10-23T22:39:42;14.90;99.90
4763;DHT22;2395;50.738;7.122;2022-10-23T22:43:07;14.90;99.90
4763;DHT22;2395;50.738;7.122;2022-10-23T22:46:34;14.90;99.90
4763;DHT22;2395;50.738;7.122;2022-10-23T22:49:59;15.00;99.90